createdAt,value
2018-12-31T00:00:45.709Z,28.20
2018-12-31T00:01:45.699Z,28.40
2018-12-31T00:02:45.709Z,30.00
2018-12-31T00:03:45.672Z,28.50
2018-12-31T00:04:45.666Z,29.40
2018-12-31T00:05:45.672Z,32.10
2018-12-31T00:06:45.651Z,29.90
2018-12-31T00:07:45.657Z,32.00
2018-12-31T00:08:45.621Z,30.30
2018-12-31T00:09:45.611Z,29.00
2018-12-31T00:10:45.616Z,31.00
2018-12-31T00:11:45.596Z,33.30
2018-12-31T00:12:45.588Z,33.70
2018-12-31T00:13:45.596Z,33.70
2018-12-31T00:14:45.561Z,29.40
2018-12-31T00:15:45.548Z,30.10
2018-12-31T00:16:45.536Z,30.50
2018-12-31T00:17:45.524Z,28.40
2018-12-31T00:18:45.516Z,33.70
2018-12-31T00:19:45.526Z,32.90
2018-12-31T00:20:45.498Z,34.80
2018-12-31T00:21:45.484Z,34.00
2018-12-31T00:22:45.470Z,30.30
2018-12-31T00:23:45.491Z,31.80
2018-12-31T00:24:45.456Z,34.20
2018-12-31T00:25:45.442Z,31.00
2018-12-31T00:26:45.433Z,31.50
2018-12-31T00:27:45.441Z,33.00
2018-12-31T00:28:45.411Z,33.60
2018-12-31T00:29:45.448Z,32.50
2018-12-31T00:30:45.383Z,33.30
2018-12-31T00:31:45.383Z,33.30
2018-12-31T00:32:45.366Z,34.40
2018-12-31T00:33:45.359Z,33.20
2018-12-31T00:34:45.376Z,33.40
2018-12-31T00:35:45.329Z,33.70
2018-12-31T00:36:45.324Z,35.50
2018-12-31T00:37:45.337Z,37.30
2018-12-31T00:38:45.307Z,35.00
2018-12-31T00:39:45.286Z,38.40
2018-12-31T00:40:45.295Z,41.10
2018-12-31T00:41:45.266Z,37.00
2018-12-31T00:42:45.252Z,39.70
2018-12-31T00:43:45.248Z,39.60
2018-12-31T00:44:45.236Z,37.30
2018-12-31T00:45:45.254Z,39.70
2018-12-31T00:46:45.220Z,40.30
2018-12-31T00:47:45.198Z,38.20
2018-12-31T00:48:45.191Z,39.30
2018-12-31T00:49:45.191Z,40.20
2018-12-31T00:50:45.166Z,44.40
2018-12-31T00:51:45.185Z,39.20
2018-12-31T00:52:45.158Z,38.70
2018-12-31T00:53:45.156Z,40.00
2018-12-31T00:54:45.131Z,37.20
2018-12-31T00:55:45.120Z,40.30
2018-12-31T00:56:45.126Z,39.20
2018-12-31T00:57:45.098Z,36.70
2018-12-31T00:58:45.086Z,39.10
2018-12-31T00:59:45.070Z,41.10
2018-12-31T01:00:45.062Z,36.70
2018-12-31T01:01:45.076Z,36.60
2018-12-31T01:02:45.041Z,34.30
2018-12-31T01:03:45.033Z,36.20
2018-12-31T01:04:45.020Z,36.60
2018-12-31T01:05:45.009Z,40.00
2018-12-31T01:06:45.000Z,34.40
2018-12-31T01:07:45.007Z,35.30
2018-12-31T01:08:44.975Z,34.80
2018-12-31T01:09:44.966Z,35.80
2018-12-31T01:10:45.000Z,37.80
2018-12-31T01:11:44.940Z,40.30
2018-12-31T01:12:44.937Z,37.50
2018-12-31T01:13:44.945Z,38.30
2018-12-31T01:14:44.909Z,39.40
2018-12-31T01:15:44.906Z,39.80
2018-12-31T01:16:44.890Z,40.50
2018-12-31T01:17:44.882Z,40.20
2018-12-31T01:18:44.901Z,40.90
2018-12-31T01:19:44.854Z,40.50
2018-12-31T01:20:44.845Z,43.40
2018-12-31T01:21:44.835Z,38.90
2018-12-31T01:22:44.822Z,39.60
2018-12-31T01:23:44.849Z,40.40
2018-12-31T01:24:44.843Z,41.60
2018-12-31T01:25:44.794Z,43.40
2018-12-31T01:26:44.777Z,39.20
2018-12-31T01:27:44.777Z,42.40
2018-12-31T01:28:44.760Z,41.10
2018-12-31T01:29:44.750Z,39.80
2018-12-31T01:30:44.761Z,40.00
2018-12-31T01:31:44.724Z,40.50
2018-12-31T01:32:44.715Z,42.70
2018-12-31T01:33:44.707Z,41.10
2018-12-31T01:34:44.692Z,38.70
2018-12-31T01:35:44.719Z,35.30
2018-12-31T01:36:44.675Z,34.80
2018-12-31T01:37:44.667Z,36.00
2018-12-31T01:38:44.666Z,38.10
2018-12-31T01:39:44.639Z,38.20
2018-12-31T01:40:44.631Z,37.10
2018-12-31T01:41:44.642Z,38.00
2018-12-31T01:42:44.611Z,35.50
2018-12-31T01:43:44.596Z,34.70
2018-12-31T01:44:44.597Z,36.90
2018-12-31T01:45:44.578Z,33.50
2018-12-31T01:46:44.588Z,37.30
2018-12-31T01:47:44.561Z,36.90
2018-12-31T01:48:44.545Z,35.70
2018-12-31T01:49:44.537Z,34.60
2018-12-31T01:50:44.523Z,34.60
2018-12-31T01:51:44.511Z,39.00
2018-12-31T01:52:44.551Z,34.30
2018-12-31T01:53:44.485Z,34.90
2018-12-31T01:54:44.495Z,32.40
2018-12-31T01:55:44.479Z,35.30
2018-12-31T01:56:44.468Z,36.20
2018-12-31T01:57:44.472Z,34.50
2018-12-31T01:58:44.434Z,35.30
2018-12-31T01:59:44.427Z,33.60
2018-12-31T02:00:44.422Z,33.90
2018-12-31T02:01:44.413Z,35.20
2018-12-31T02:02:44.393Z,35.20
2018-12-31T02:03:52.243Z,38.60
2018-12-31T02:04:44.393Z,36.80
2018-12-31T02:05:44.356Z,37.10
2018-12-31T02:06:44.347Z,32.80
2018-12-31T02:07:44.339Z,33.80
2018-12-31T02:08:44.336Z,33.30
2018-12-31T02:09:44.410Z,35.10
2018-12-31T02:10:44.326Z,33.60
2018-12-31T02:11:44.305Z,35.70
2018-12-31T02:12:44.286Z,33.20
2018-12-31T02:13:44.278Z,34.30
2018-12-31T02:14:44.264Z,34.90
2018-12-31T02:15:44.280Z,38.00
2018-12-31T02:16:44.239Z,39.00
2018-12-31T02:17:44.243Z,37.50
2018-12-31T02:18:45.607Z,38.30
2018-12-31T02:19:44.210Z,35.20
2018-12-31T02:20:44.203Z,36.30
2018-12-31T02:21:44.213Z,38.80
2018-12-31T02:22:44.186Z,37.80
2018-12-31T02:23:44.165Z,36.70
2018-12-31T02:24:44.152Z,42.40
2018-12-31T02:25:44.150Z,39.50
2018-12-31T02:26:44.152Z,39.70
2018-12-31T02:27:44.126Z,41.40
2018-12-31T02:28:44.118Z,40.00
2018-12-31T02:29:44.102Z,40.80
2018-12-31T02:30:44.112Z,39.90
2018-12-31T02:31:44.107Z,42.80
2018-12-31T02:32:44.072Z,42.80
2018-12-31T02:33:44.066Z,44.70
2018-12-31T02:34:44.063Z,40.10
2018-12-31T02:35:44.090Z,43.00
2018-12-31T02:36:44.081Z,43.90
2018-12-31T02:37:44.017Z,43.50
2018-12-31T02:38:44.006Z,40.70
2018-12-31T02:39:43.996Z,46.00
2018-12-31T02:40:43.987Z,42.90
2018-12-31T02:41:43.977Z,43.50
2018-12-31T02:42:43.985Z,46.60
2018-12-31T02:43:44.026Z,47.90
2018-12-31T02:44:43.936Z,49.20
2018-12-31T02:45:43.951Z,53.00
2018-12-31T02:46:43.939Z,44.00
2018-12-31T02:47:43.906Z,49.00
2018-12-31T02:48:43.894Z,45.50
2018-12-31T02:49:43.888Z,49.10
2018-12-31T02:50:43.875Z,43.80
2018-12-31T02:51:43.891Z,42.70
2018-12-31T02:52:43.857Z,39.40
2018-12-31T02:53:43.847Z,43.40
2018-12-31T02:54:43.833Z,40.80
2018-12-31T02:55:43.822Z,42.10
2018-12-31T02:56:43.811Z,42.90
2018-12-31T02:57:43.815Z,37.40
2018-12-31T02:58:43.789Z,41.00
2018-12-31T02:59:43.780Z,37.70
2018-12-31T03:00:43.771Z,41.60
2018-12-31T03:01:43.776Z,37.10
2018-12-31T03:02:43.758Z,39.00
2018-12-31T03:03:43.749Z,37.70
2018-12-31T03:04:43.733Z,35.70
2018-12-31T03:05:43.718Z,38.80
2018-12-31T03:06:43.756Z,36.10
2018-12-31T03:07:43.691Z,36.70
2018-12-31T03:08:43.683Z,36.20
2018-12-31T03:09:43.691Z,35.90
2018-12-31T03:10:43.671Z,34.20
2018-12-31T03:11:43.652Z,38.10
2018-12-31T03:12:43.644Z,36.30
2018-12-31T03:13:43.632Z,35.90
2018-12-31T03:14:43.619Z,35.50
2018-12-31T03:15:43.635Z,35.30
2018-12-31T03:16:43.702Z,35.10
2018-12-31T03:17:43.589Z,33.30
2018-12-31T03:18:43.576Z,32.60
2018-12-31T03:19:43.562Z,33.20
2018-12-31T03:20:43.550Z,33.10
2018-12-31T03:21:43.557Z,33.90
2018-12-31T03:22:43.530Z,34.40
2018-12-31T03:23:43.526Z,33.50
2018-12-31T03:24:43.514Z,31.60
2018-12-31T03:25:43.504Z,32.30
2018-12-31T03:26:43.514Z,32.00
2018-12-31T03:27:43.476Z,31.40
2018-12-31T03:28:43.466Z,31.10
2018-12-31T03:29:43.453Z,31.90
2018-12-31T03:30:43.457Z,30.40
2018-12-31T03:31:43.437Z,31.10
2018-12-31T03:32:43.450Z,31.70
2018-12-31T03:33:43.413Z,31.40
2018-12-31T03:34:43.403Z,31.80
2018-12-31T03:35:43.398Z,31.70
2018-12-31T03:36:43.405Z,32.20
2018-12-31T03:37:43.410Z,34.60
2018-12-31T03:38:43.362Z,33.30
2018-12-31T03:39:43.347Z,31.80
2018-12-31T03:40:43.337Z,33.10
2018-12-31T03:41:43.325Z,38.20
2018-12-31T03:42:43.323Z,32.60
2018-12-31T03:43:43.330Z,32.50
2018-12-31T03:44:43.303Z,31.70
2018-12-31T03:45:43.291Z,37.30
2018-12-31T03:46:43.279Z,31.30
2018-12-31T03:47:43.263Z,32.50
2018-12-31T03:48:43.268Z,29.60
2018-12-31T03:49:43.247Z,32.10
2018-12-31T03:50:43.239Z,32.40
2018-12-31T03:51:43.232Z,29.50
2018-12-31T03:52:43.230Z,31.20
2018-12-31T03:53:43.204Z,31.60
2018-12-31T03:54:43.189Z,31.20
2018-12-31T03:55:43.177Z,31.00
2018-12-31T03:56:43.170Z,34.00
2018-12-31T03:57:43.189Z,31.50
2018-12-31T03:58:43.164Z,30.30
2018-12-31T03:59:43.150Z,30.40
2018-12-31T04:00:43.121Z,28.80
2018-12-31T04:01:43.111Z,30.90
2018-12-31T04:02:43.103Z,30.00
2018-12-31T04:03:43.101Z,31.40
2018-12-31T04:04:43.104Z,32.80
2018-12-31T04:05:43.066Z,30.40
2018-12-31T04:06:43.060Z,30.40
2018-12-31T04:07:43.077Z,30.90
2018-12-31T04:08:43.041Z,31.00
2018-12-31T04:09:43.030Z,31.40
2018-12-31T04:10:43.036Z,31.30
2018-12-31T04:11:43.038Z,31.40
2018-12-31T04:12:43.013Z,32.60
2018-12-31T04:13:42.982Z,33.40
2018-12-31T04:14:42.971Z,30.80
2018-12-31T04:15:42.974Z,34.50
2018-12-31T04:16:42.956Z,33.90
2018-12-31T04:17:42.970Z,31.60
2018-12-31T04:18:42.938Z,33.60
2018-12-31T04:19:42.918Z,34.10
2018-12-31T04:20:42.905Z,34.80
2018-12-31T04:21:42.907Z,34.60
2018-12-31T04:22:42.905Z,35.20
2018-12-31T04:23:42.976Z,37.60
2018-12-31T04:24:43.793Z,36.60
2018-12-31T04:25:42.853Z,37.20
2018-12-31T04:26:42.843Z,36.40
2018-12-31T04:27:42.844Z,36.60
2018-12-31T04:28:42.951Z,36.50
2018-12-31T04:29:42.821Z,37.10
2018-12-31T04:30:42.803Z,39.50
2018-12-31T04:31:42.793Z,36.40
2018-12-31T04:32:42.778Z,37.30
2018-12-31T04:33:42.793Z,36.80
2018-12-31T04:34:42.777Z,44.00
2018-12-31T04:35:42.754Z,39.70
2018-12-31T04:36:42.740Z,42.30
2018-12-31T04:37:42.726Z,42.60
2018-12-31T04:38:42.714Z,41.00
2018-12-31T04:39:43.948Z,43.10
2018-12-31T04:40:42.712Z,42.40
2018-12-31T04:41:42.689Z,44.20
2018-12-31T04:42:42.681Z,45.90
2018-12-31T04:43:42.662Z,45.70
2018-12-31T04:44:42.648Z,48.50
2018-12-31T04:45:42.653Z,47.10
2018-12-31T04:46:42.635Z,49.90
2018-12-31T04:47:42.631Z,48.40
2018-12-31T04:48:42.609Z,50.20
2018-12-31T04:49:42.636Z,50.30
2018-12-31T04:50:42.585Z,47.80
2018-12-31T04:51:42.582Z,51.10
2018-12-31T04:52:42.579Z,49.70
2018-12-31T04:53:42.555Z,53.70
2018-12-31T04:54:42.542Z,46.30
2018-12-31T04:55:44.520Z,48.20
2018-12-31T04:56:42.539Z,49.50
2018-12-31T04:57:42.509Z,49.30
2018-12-31T04:58:42.522Z,51.10
2018-12-31T04:59:43.698Z,50.20
2018-12-31T05:00:42.493Z,51.10
2018-12-31T05:01:42.470Z,47.00
2018-12-31T05:02:42.456Z,50.50
2018-12-31T05:03:42.443Z,49.10
2018-12-31T05:04:42.457Z,49.40
2018-12-31T05:05:42.422Z,50.40
2018-12-31T05:06:42.420Z,51.40
2018-12-31T05:07:42.403Z,51.30
2018-12-31T05:08:42.431Z,50.90
2018-12-31T05:09:42.408Z,50.00
2018-12-31T05:10:42.401Z,52.20
2018-12-31T05:11:42.372Z,51.20
2018-12-31T05:12:42.351Z,52.50
2018-12-31T05:13:42.341Z,51.00
2018-12-31T05:14:42.331Z,51.20
2018-12-31T05:15:42.313Z,50.80
2018-12-31T05:16:42.331Z,50.40
2018-12-31T05:17:42.299Z,50.40
2018-12-31T05:18:42.292Z,52.10
2018-12-31T05:19:42.295Z,50.00
2018-12-31T05:20:42.308Z,51.80
2018-12-31T05:21:42.254Z,50.40
2018-12-31T05:22:42.255Z,51.00
2018-12-31T05:23:42.257Z,52.20
2018-12-31T05:24:42.214Z,53.10
2018-12-31T05:25:42.211Z,54.50
2018-12-31T05:26:42.197Z,56.10
2018-12-31T05:27:42.193Z,55.20
2018-12-31T05:28:42.179Z,53.40
2018-12-31T05:29:42.206Z,53.50
2018-12-31T05:30:42.153Z,55.50
2018-12-31T05:31:42.144Z,56.20
2018-12-31T05:32:42.136Z,53.90
2018-12-31T05:33:42.124Z,51.00
2018-12-31T05:34:42.120Z,55.30
2018-12-31T05:35:42.123Z,56.00
2018-12-31T05:36:42.085Z,54.60
2018-12-31T05:37:42.077Z,56.90
2018-12-31T05:38:42.083Z,54.10
2018-12-31T05:39:42.077Z,58.70
2018-12-31T05:40:42.052Z,55.30
2018-12-31T05:41:42.056Z,55.80
2018-12-31T05:42:42.028Z,56.40
2018-12-31T05:43:42.015Z,55.70
2018-12-31T05:44:42.008Z,57.10
2018-12-31T05:45:41.998Z,57.20
2018-12-31T05:46:41.994Z,61.90
2018-12-31T05:47:41.996Z,54.70
2018-12-31T05:48:46.629Z,54.70
2018-12-31T05:49:41.973Z,54.60
2018-12-31T05:50:41.938Z,57.20
2018-12-31T05:51:41.930Z,57.60
2018-12-31T05:52:41.938Z,59.60
2018-12-31T05:53:41.909Z,58.90
2018-12-31T05:54:41.899Z,58.50
2018-12-31T05:55:41.884Z,59.00
2018-12-31T05:56:41.874Z,55.20
2018-12-31T05:57:41.890Z,57.60
2018-12-31T05:58:41.864Z,57.60
2018-12-31T05:59:41.842Z,55.70
2018-12-31T06:00:42.193Z,53.20
2018-12-31T06:01:41.819Z,55.50
2018-12-31T06:02:41.849Z,55.00
2018-12-31T06:03:41.850Z,56.30
2018-12-31T06:04:41.807Z,54.50
2018-12-31T06:05:41.798Z,58.40
2018-12-31T06:06:41.782Z,58.70
2018-12-31T06:07:41.754Z,57.50
2018-12-31T06:08:41.748Z,55.80
2018-12-31T06:09:41.733Z,53.30
2018-12-31T06:10:41.839Z,56.10
2018-12-31T06:11:42.902Z,53.80
2018-12-31T06:12:41.707Z,54.80
2018-12-31T06:13:41.693Z,53.00
2018-12-31T06:14:41.690Z,53.00
2018-12-31T06:15:41.682Z,49.70
2018-12-31T06:16:41.690Z,47.40
2018-12-31T06:17:41.649Z,50.90
2018-12-31T06:18:41.646Z,48.90
2018-12-31T06:19:41.625Z,49.20
2018-12-31T06:20:41.623Z,48.30
2018-12-31T06:21:41.604Z,50.10
2018-12-31T06:22:41.624Z,48.60
2018-12-31T06:23:41.589Z,50.80
2018-12-31T06:24:41.796Z,49.20
2018-12-31T06:25:41.562Z,51.80
2018-12-31T06:26:41.556Z,51.40
2018-12-31T06:27:41.535Z,47.60
2018-12-31T06:28:41.628Z,49.80
2018-12-31T06:29:41.521Z,50.10
2018-12-31T06:30:41.536Z,50.40
2018-12-31T06:31:41.492Z,51.70
2018-12-31T06:32:41.517Z,60.70
2018-12-31T06:33:41.473Z,54.70
2018-12-31T06:34:41.474Z,51.60
2018-12-31T06:35:41.456Z,59.50
2018-12-31T06:36:41.444Z,55.90
2018-12-31T06:37:41.433Z,56.80
2018-12-31T06:38:41.447Z,52.10
2018-12-31T06:39:41.408Z,58.00
2018-12-31T06:40:41.398Z,53.60
2018-12-31T06:41:41.412Z,51.70
2018-12-31T06:42:41.374Z,56.60
2018-12-31T06:43:41.370Z,54.80
2018-12-31T06:44:41.647Z,53.40
2018-12-31T06:45:41.897Z,54.20
2018-12-31T06:46:41.411Z,56.10
2018-12-31T06:47:41.355Z,54.60
2018-12-31T06:48:41.317Z,56.00
2018-12-31T06:49:41.360Z,56.10
2018-12-31T06:50:41.340Z,60.10
2018-12-31T06:51:41.278Z,57.70
2018-12-31T06:52:41.386Z,54.50
2018-12-31T06:53:41.279Z,59.90
2018-12-31T06:54:41.300Z,58.40
2018-12-31T06:55:41.240Z,54.00
2018-12-31T06:56:41.433Z,59.70
2018-12-31T06:57:41.216Z,61.10
2018-12-31T06:58:41.215Z,60.40
2018-12-31T06:59:41.191Z,53.50
2018-12-31T07:00:41.182Z,62.00
2018-12-31T07:01:41.190Z,52.90
2018-12-31T07:02:41.167Z,56.50
2018-12-31T07:03:41.145Z,58.50
2018-12-31T07:04:41.365Z,60.60
2018-12-31T07:05:41.129Z,58.70
2018-12-31T07:06:41.153Z,57.50
2018-12-31T07:07:41.110Z,59.80
2018-12-31T07:08:41.099Z,56.50
2018-12-31T07:09:41.086Z,59.10
2018-12-31T07:10:41.077Z,62.70
2018-12-31T07:11:41.065Z,53.70
2018-12-31T07:12:41.072Z,54.70
2018-12-31T07:13:41.040Z,59.70
2018-12-31T07:14:41.033Z,58.00
2018-12-31T07:15:41.037Z,63.40
2018-12-31T07:16:41.036Z,58.70
2018-12-31T07:17:41.006Z,66.30
2018-12-31T07:18:40.984Z,54.50
2018-12-31T07:19:40.981Z,57.60
2018-12-31T07:20:40.966Z,54.80
2018-12-31T07:21:40.962Z,61.70
2018-12-31T07:22:40.972Z,60.30
2018-12-31T07:23:40.929Z,59.20
2018-12-31T07:24:40.923Z,60.90
2018-12-31T07:25:40.910Z,60.00
2018-12-31T07:26:40.902Z,58.40
2018-12-31T07:27:40.895Z,58.70
2018-12-31T07:28:40.898Z,55.50
2018-12-31T07:29:40.877Z,58.80
2018-12-31T07:30:40.862Z,56.00
2018-12-31T07:31:40.849Z,55.40
2018-12-31T07:32:40.858Z,57.80
2018-12-31T07:33:40.873Z,52.80
2018-12-31T07:34:40.853Z,55.20
2018-12-31T07:35:40.806Z,54.40
2018-12-31T07:36:40.797Z,53.90
2018-12-31T07:37:40.800Z,59.60
2018-12-31T07:38:40.768Z,52.50
2018-12-31T07:39:40.782Z,59.80
2018-12-31T07:40:40.754Z,59.40
2018-12-31T07:41:40.745Z,50.40
2018-12-31T07:42:40.731Z,54.90
2018-12-31T07:43:40.738Z,53.70
2018-12-31T07:44:40.734Z,61.70
2018-12-31T07:45:40.694Z,57.70
2018-12-31T07:46:40.682Z,57.30
2018-12-31T07:47:40.681Z,61.20
2018-12-31T07:48:40.668Z,58.30
2018-12-31T07:49:40.731Z,51.20
2018-12-31T07:50:40.639Z,54.40
2018-12-31T07:51:40.636Z,57.10
2018-12-31T07:52:40.624Z,50.50
2018-12-31T07:53:40.613Z,52.60
2018-12-31T07:54:40.627Z,56.50
2018-12-31T07:55:40.665Z,52.40
2018-12-31T07:56:40.578Z,48.90
2018-12-31T07:57:47.602Z,52.60
2018-12-31T07:58:40.576Z,57.20
2018-12-31T07:59:40.550Z,53.10
2018-12-31T08:00:40.551Z,53.50
2018-12-31T08:01:40.549Z,51.90
2018-12-31T08:02:40.513Z,56.90
2018-12-31T08:03:40.504Z,48.10
2018-12-31T08:04:40.500Z,51.40
2018-12-31T08:05:40.475Z,49.00
2018-12-31T08:06:40.474Z,50.80
2018-12-31T08:07:40.478Z,54.10
2018-12-31T08:08:40.446Z,47.00
2018-12-31T08:09:40.470Z,43.60
2018-12-31T08:10:40.504Z,50.10
2018-12-31T08:11:40.444Z,48.20
2018-12-31T08:12:40.408Z,49.10
2018-12-31T08:13:40.458Z,48.20
2018-12-31T08:14:40.382Z,45.10
2018-12-31T08:15:40.371Z,48.20
2018-12-31T08:16:43.109Z,44.90
2018-12-31T08:17:40.370Z,46.90
2018-12-31T08:18:40.346Z,42.60
2018-12-31T08:19:40.335Z,45.90
2018-12-31T08:20:40.314Z,45.60
2018-12-31T08:21:40.358Z,46.70
2018-12-31T08:22:40.326Z,48.20
2018-12-31T08:23:40.303Z,43.90
2018-12-31T08:24:40.277Z,42.00
2018-12-31T08:25:40.263Z,44.00
2018-12-31T08:26:40.258Z,48.90
2018-12-31T08:27:40.241Z,46.40
2018-12-31T08:28:40.264Z,42.50
2018-12-31T08:29:40.232Z,42.00
2018-12-31T08:30:40.215Z,46.30
2018-12-31T08:31:40.245Z,37.80
2018-12-31T08:32:40.202Z,42.80
2018-12-31T08:33:40.177Z,42.30
2018-12-31T08:34:40.182Z,40.70
2018-12-31T08:35:40.159Z,43.00
2018-12-31T08:36:40.210Z,44.10
2018-12-31T08:37:40.183Z,42.60
2018-12-31T08:38:40.209Z,40.00
2018-12-31T08:39:40.110Z,42.60
2018-12-31T08:40:40.142Z,39.40
2018-12-31T08:41:40.094Z,38.20
2018-12-31T08:42:40.084Z,45.90
2018-12-31T08:43:40.071Z,38.20
2018-12-31T08:44:40.944Z,43.90
2018-12-31T08:45:40.048Z,39.60
2018-12-31T08:46:40.036Z,44.20
2018-12-31T08:47:40.024Z,41.50
2018-12-31T08:48:40.012Z,39.70
2018-12-31T08:49:40.044Z,40.10
2018-12-31T08:50:39.999Z,37.40
2018-12-31T08:51:39.983Z,38.80
2018-12-31T08:52:39.968Z,37.00
2018-12-31T08:53:39.964Z,44.40
2018-12-31T08:54:39.952Z,36.10
2018-12-31T08:55:39.959Z,36.20
2018-12-31T08:56:39.934Z,37.60
2018-12-31T08:57:39.943Z,38.10
2018-12-31T08:58:39.961Z,38.90
2018-12-31T08:59:39.973Z,39.60
2018-12-31T09:00:39.884Z,36.50
2018-12-31T09:01:39.897Z,37.30
2018-12-31T09:02:39.864Z,40.80
2018-12-31T09:03:39.855Z,37.20
2018-12-31T09:04:39.865Z,44.40
2018-12-31T09:05:39.827Z,38.00
2018-12-31T09:06:39.850Z,38.30
2018-12-31T09:07:39.811Z,38.30
2018-12-31T09:08:39.806Z,36.00
2018-12-31T09:09:39.783Z,43.40
2018-12-31T09:10:39.791Z,38.10
2018-12-31T09:11:39.769Z,36.30
2018-12-31T09:12:39.778Z,35.90
2018-12-31T09:13:39.759Z,41.90
2018-12-31T09:14:39.736Z,38.50
2018-12-31T09:15:39.723Z,36.70
2018-12-31T09:16:39.724Z,35.00
2018-12-31T09:17:39.715Z,36.70
2018-12-31T09:18:39.767Z,37.30
2018-12-31T09:19:39.754Z,41.70
2018-12-31T09:20:39.664Z,38.30
2018-12-31T09:21:39.670Z,35.40
2018-12-31T09:22:39.646Z,43.50
2018-12-31T09:23:39.640Z,35.70
2018-12-31T09:24:44.576Z,35.30
2018-12-31T09:25:40.639Z,41.80
2018-12-31T09:26:39.604Z,39.20
2018-12-31T09:27:39.597Z,39.40
2018-12-31T09:28:39.588Z,43.00
2018-12-31T09:29:39.568Z,36.80
2018-12-31T09:30:39.559Z,36.60
2018-12-31T09:31:39.671Z,38.00
2018-12-31T09:32:39.548Z,38.20
2018-12-31T09:33:39.533Z,42.20
2018-12-31T09:34:39.525Z,37.30
2018-12-31T09:35:39.508Z,35.80
2018-12-31T09:36:39.518Z,38.00
2018-12-31T09:37:39.482Z,37.60
2018-12-31T09:38:39.476Z,41.50
2018-12-31T09:39:39.517Z,46.70
2018-12-31T09:40:39.517Z,44.40
2018-12-31T09:41:39.440Z,42.80
2018-12-31T09:42:39.449Z,42.50
2018-12-31T09:43:39.425Z,39.00
2018-12-31T09:44:39.411Z,37.10
2018-12-31T09:45:39.425Z,36.00
2018-12-31T09:46:39.392Z,40.40
2018-12-31T09:47:39.403Z,37.90
2018-12-31T09:48:39.369Z,39.60
2018-12-31T09:49:39.353Z,38.60
2018-12-31T09:50:39.347Z,38.20
2018-12-31T09:51:39.333Z,39.30
2018-12-31T09:52:39.320Z,39.30
2018-12-31T09:53:39.334Z,42.90
2018-12-31T09:54:39.305Z,40.90
2018-12-31T09:55:39.299Z,38.50
2018-12-31T09:56:39.281Z,40.60
2018-12-31T09:57:39.333Z,39.00
2018-12-31T09:58:39.284Z,40.90
2018-12-31T09:59:39.286Z,37.30
2018-12-31T10:00:39.297Z,39.70
2018-12-31T10:01:39.313Z,41.20
2018-12-31T10:02:39.215Z,42.30
2018-12-31T10:03:39.206Z,38.60
2018-12-31T10:04:39.192Z,38.10
2018-12-31T10:05:39.191Z,38.40
2018-12-31T10:06:39.195Z,44.60
2018-12-31T10:07:39.175Z,47.60
2018-12-31T10:08:39.255Z,42.30
2018-12-31T10:09:39.144Z,42.30
2018-12-31T10:10:39.129Z,37.40
2018-12-31T10:11:39.121Z,36.90
2018-12-31T10:12:39.111Z,43.20
2018-12-31T10:13:39.111Z,34.50
2018-12-31T10:14:39.085Z,36.80
2018-12-31T10:15:39.079Z,35.00
2018-12-31T10:16:39.062Z,43.70
2018-12-31T10:17:39.056Z,35.10
2018-12-31T10:18:39.068Z,31.50
2018-12-31T10:19:39.030Z,31.90
2018-12-31T10:20:39.019Z,36.20
2018-12-31T10:21:41.160Z,34.10
2018-12-31T10:22:39.056Z,37.70
2018-12-31T10:23:38.990Z,30.60
2018-12-31T10:24:38.980Z,35.70
2018-12-31T10:25:38.963Z,35.60
2018-12-31T10:26:38.971Z,36.10
2018-12-31T10:27:38.945Z,32.90
2018-12-31T10:28:38.994Z,36.50
2018-12-31T10:29:38.947Z,31.60
2018-12-31T10:30:38.916Z,36.40
2018-12-31T10:31:38.900Z,38.50
2018-12-31T10:32:38.901Z,32.40
2018-12-31T10:33:38.883Z,33.20
2018-12-31T10:34:38.879Z,35.10
2018-12-31T10:35:38.878Z,31.10
2018-12-31T10:36:38.899Z,32.00
2018-12-31T10:37:38.871Z,33.00
2018-12-31T10:38:38.826Z,34.50
2018-12-31T10:39:38.817Z,35.30
2018-12-31T10:40:38.809Z,31.70
2018-12-31T10:41:38.799Z,32.60
2018-12-31T10:42:38.830Z,33.20
2018-12-31T10:43:38.843Z,34.80
2018-12-31T10:44:38.760Z,37.80
2018-12-31T10:45:38.757Z,32.70
2018-12-31T10:46:38.742Z,33.50
2018-12-31T10:47:38.748Z,31.60
2018-12-31T10:48:38.723Z,34.60
2018-12-31T10:49:38.732Z,34.40
2018-12-31T10:50:38.697Z,33.20
2018-12-31T10:51:38.702Z,32.10
2018-12-31T10:52:38.694Z,33.30
2018-12-31T10:53:38.689Z,32.50
2018-12-31T10:54:38.658Z,32.10
2018-12-31T10:55:38.648Z,34.70
2018-12-31T10:56:38.665Z,32.10
2018-12-31T10:57:38.618Z,32.40
2018-12-31T10:58:38.608Z,32.60
2018-12-31T10:59:38.643Z,34.50
2018-12-31T11:00:38.591Z,32.80
2018-12-31T11:01:38.581Z,36.20
2018-12-31T11:02:38.587Z,31.60
2018-12-31T11:03:38.565Z,37.80
2018-12-31T11:04:38.633Z,52.70
2018-12-31T11:05:38.538Z,53.20
2018-12-31T11:06:38.526Z,42.20
2018-12-31T11:07:38.560Z,34.90
2018-12-31T11:08:38.510Z,33.90
2018-12-31T11:09:38.492Z,30.70
2018-12-31T11:10:38.479Z,32.40
2018-12-31T11:11:38.469Z,31.30
2018-12-31T11:12:38.462Z,28.90
2018-12-31T11:13:38.477Z,32.10
2018-12-31T11:14:38.446Z,30.90
2018-12-31T11:15:38.429Z,34.20
2018-12-31T11:16:38.414Z,29.90
2018-12-31T11:17:38.439Z,32.30
2018-12-31T11:18:38.451Z,31.90
2018-12-31T11:19:38.408Z,31.20
2018-12-31T11:20:38.387Z,31.40
2018-12-31T11:21:38.366Z,35.40
2018-12-31T11:22:38.354Z,29.10
2018-12-31T11:23:38.358Z,29.50
2018-12-31T11:24:38.358Z,30.40
2018-12-31T11:25:38.381Z,29.70
2018-12-31T11:26:38.311Z,30.40
2018-12-31T11:27:38.301Z,26.20
2018-12-31T11:28:38.319Z,27.90
2018-12-31T11:29:38.273Z,27.80
2018-12-31T11:30:38.265Z,29.50
2018-12-31T11:31:38.258Z,32.80
2018-12-31T11:32:38.248Z,27.50
2018-12-31T11:33:38.233Z,30.10
2018-12-31T11:34:38.239Z,26.50
2018-12-31T11:35:38.211Z,24.80
2018-12-31T11:36:38.197Z,27.50
2018-12-31T11:37:38.195Z,26.60
2018-12-31T11:38:38.199Z,28.80
2018-12-31T11:39:38.197Z,26.90
2018-12-31T11:40:38.163Z,27.80
2018-12-31T11:41:38.148Z,27.30
2018-12-31T11:42:38.136Z,28.30
2018-12-31T11:43:38.124Z,29.90
2018-12-31T11:44:38.120Z,28.00
2018-12-31T11:45:38.181Z,29.10
2018-12-31T11:46:38.142Z,27.40
2018-12-31T11:47:38.084Z,32.70
2018-12-31T11:48:38.075Z,31.90
2018-12-31T11:49:38.063Z,28.80
2018-12-31T11:50:38.056Z,28.10
2018-12-31T11:51:38.078Z,29.10
2018-12-31T11:52:38.031Z,29.80
2018-12-31T11:53:38.040Z,29.10
2018-12-31T11:54:39.332Z,28.70
2018-12-31T11:55:37.998Z,33.30
2018-12-31T11:56:37.983Z,30.00
2018-12-31T11:57:37.977Z,30.10
2018-12-31T11:58:37.965Z,32.00
2018-12-31T11:59:37.982Z,29.30
2018-12-31T12:00:37.946Z,40.40
2018-12-31T12:01:37.929Z,44.60
2018-12-31T12:02:37.996Z,38.80
2018-12-31T12:03:37.933Z,42.20
2018-12-31T12:04:37.905Z,33.60
2018-12-31T12:05:37.905Z,30.30
2018-12-31T12:06:37.909Z,42.00
2018-12-31T12:07:37.917Z,32.40
2018-12-31T12:08:37.879Z,31.10
2018-12-31T12:09:37.863Z,33.80
2018-12-31T12:10:37.837Z,37.20
2018-12-31T12:11:37.839Z,37.60
2018-12-31T12:12:37.816Z,41.30
2018-12-31T12:13:37.800Z,33.70
2018-12-31T12:14:37.811Z,35.40
2018-12-31T12:15:37.786Z,34.30
2018-12-31T12:16:37.769Z,31.30
2018-12-31T12:17:37.765Z,31.20
2018-12-31T12:18:37.757Z,34.50
2018-12-31T12:19:37.765Z,33.50
2018-12-31T12:20:37.730Z,33.20
2018-12-31T12:21:37.720Z,33.40
2018-12-31T12:22:37.707Z,32.80
2018-12-31T12:23:37.696Z,31.10
2018-12-31T12:24:37.692Z,31.90
2018-12-31T12:25:37.716Z,32.80
2018-12-31T12:26:37.665Z,31.00
2018-12-31T12:27:37.757Z,34.80
2018-12-31T12:28:37.729Z,31.20
2018-12-31T12:29:37.736Z,31.20
2018-12-31T12:30:37.629Z,34.20
2018-12-31T12:31:37.612Z,33.50
2018-12-31T12:32:37.614Z,31.90
2018-12-31T12:33:38.467Z,30.40
2018-12-31T12:34:37.594Z,31.50
2018-12-31T12:35:37.568Z,31.60
2018-12-31T12:36:37.561Z,33.30
2018-12-31T12:37:37.565Z,32.60
2018-12-31T12:38:37.536Z,33.40
2018-12-31T12:39:37.521Z,30.40
2018-12-31T12:40:37.516Z,30.50
2018-12-31T12:41:37.507Z,30.70
2018-12-31T12:42:37.520Z,31.40
2018-12-31T12:43:37.481Z,34.00
2018-12-31T12:44:37.471Z,32.90
2018-12-31T12:45:37.460Z,35.50
2018-12-31T12:46:37.482Z,33.30
2018-12-31T12:47:37.438Z,33.30
2018-12-31T12:48:37.708Z,34.40
2018-12-31T12:49:37.476Z,36.90
2018-12-31T12:50:37.512Z,36.60
2018-12-31T12:51:37.407Z,32.80
2018-12-31T12:52:37.380Z,32.40